createdAt,value
2017-12-31T00:00:27.309Z,993.65
2017-12-31T00:01:07.873Z,993.6
2017-12-31T00:01:48.460Z,993.62
2017-12-31T00:02:29.026Z,993.62
2017-12-31T00:03:09.582Z,993.65
2017-12-31T00:03:50.145Z,993.61
2017-12-31T00:04:30.723Z,993.7
2017-12-31T00:05:11.290Z,993.62
2017-12-31T00:05:51.862Z,993.72
2017-12-31T00:06:32.417Z,993.69
2017-12-31T00:07:13.010Z,993.77
2017-12-31T00:07:53.578Z,993.76
2017-12-31T00:08:34.160Z,993.9
2017-12-31T00:09:14.743Z,993.8
2017-12-31T00:09:55.308Z,993.76
2017-12-31T00:10:35.869Z,993.72
2017-12-31T00:11:16.436Z,993.8
2017-12-31T00:11:57.004Z,993.85
2017-12-31T00:12:37.580Z,993.92
2017-12-31T00:13:18.139Z,993.91
2017-12-31T00:13:58.721Z,993.92
2017-12-31T00:14:39.285Z,993.92
2017-12-31T00:15:19.858Z,993.95
2017-12-31T00:16:00.428Z,993.91
2017-12-31T00:16:40.997Z,993.99
2017-12-31T00:17:21.586Z,993.98
2017-12-31T00:18:02.156Z,994.06
2017-12-31T00:18:42.728Z,993.94
2017-12-31T00:19:23.291Z,993.95
2017-12-31T00:20:03.846Z,994.13
2017-12-31T00:20:44.423Z,994.13
2017-12-31T00:21:25.001Z,994.13
2017-12-31T00:22:05.565Z,994.16
2017-12-31T00:22:46.133Z,994.14
2017-12-31T00:23:26.696Z,994.22
2017-12-31T00:24:07.248Z,994.19
2017-12-31T00:24:47.805Z,994.26
2017-12-31T00:25:28.371Z,994.3
2017-12-31T00:26:08.963Z,994.35
2017-12-31T00:26:49.520Z,994.42
2017-12-31T00:27:30.088Z,994.44
2017-12-31T00:28:10.644Z,994.45
2017-12-31T00:28:51.200Z,994.41
2017-12-31T00:29:31.770Z,994.44
2017-12-31T00:30:12.321Z,994.35
2017-12-31T00:30:52.888Z,994.27
2017-12-31T00:31:33.450Z,994.35
2017-12-31T00:32:14.007Z,994.46
2017-12-31T00:32:54.565Z,994.43
2017-12-31T00:33:35.127Z,994.47
2017-12-31T00:34:15.685Z,994.44
2017-12-31T00:34:56.243Z,994.52
2017-12-31T00:35:36.807Z,994.51
2017-12-31T00:36:17.364Z,994.58
2017-12-31T00:36:57.953Z,994.51
2017-12-31T00:37:38.533Z,994.55
2017-12-31T00:38:19.107Z,994.52
2017-12-31T00:38:59.670Z,994.48
2017-12-31T00:39:40.229Z,994.48
2017-12-31T00:40:20.818Z,994.52
2017-12-31T00:41:01.382Z,994.47
2017-12-31T00:41:41.950Z,994.49
2017-12-31T00:42:22.512Z,994.47
2017-12-31T00:43:03.087Z,994.48
2017-12-31T00:43:43.665Z,994.5
2017-12-31T00:44:24.229Z,994.49
2017-12-31T00:45:04.810Z,994.52
2017-12-31T00:45:45.370Z,994.5
2017-12-31T00:46:25.937Z,994.48
2017-12-31T00:47:06.507Z,994.47
2017-12-31T00:47:47.075Z,994.56
2017-12-31T00:48:27.637Z,994.48
2017-12-31T00:49:08.197Z,994.57
2017-12-31T00:49:48.804Z,994.58
2017-12-31T00:50:29.376Z,994.67
2017-12-31T00:51:09.941Z,994.62
2017-12-31T00:51:50.506Z,994.66
2017-12-31T00:52:31.089Z,994.76
2017-12-31T00:53:11.662Z,994.67
2017-12-31T00:53:52.228Z,994.79
2017-12-31T00:54:32.791Z,994.72
2017-12-31T00:55:13.360Z,994.84
2017-12-31T00:55:53.924Z,994.79
2017-12-31T00:56:34.486Z,994.8
2017-12-31T00:57:15.036Z,994.84
2017-12-31T00:57:55.600Z,994.84
2017-12-31T00:58:36.157Z,994.86
2017-12-31T00:59:16.724Z,994.95
2017-12-31T00:59:57.292Z,995
2017-12-31T01:00:37.911Z,994.97
2017-12-31T01:01:18.422Z,995.05
2017-12-31T01:01:58.990Z,995.02
2017-12-31T01:02:39.571Z,995.02
2017-12-31T01:03:20.131Z,995.06
2017-12-31T01:04:00.692Z,995.05
2017-12-31T01:04:41.257Z,995.04
2017-12-31T01:05:21.820Z,995.07
2017-12-31T01:06:02.383Z,995.1
2017-12-31T01:06:42.940Z,995.2
2017-12-31T01:07:23.500Z,995.18
2017-12-31T01:08:04.054Z,995.18
2017-12-31T01:08:44.613Z,995.2
2017-12-31T01:09:25.237Z,995.23
2017-12-31T01:10:05.793Z,995.23
2017-12-31T01:10:46.359Z,995.31
2017-12-31T01:11:26.914Z,995.31
2017-12-31T01:12:07.474Z,995.32
2017-12-31T01:12:48.038Z,995.28
2017-12-31T01:13:28.593Z,995.36
2017-12-31T01:14:09.156Z,995.34
2017-12-31T01:14:49.710Z,995.24
2017-12-31T01:15:30.295Z,995.23
2017-12-31T01:16:10.848Z,995.29
2017-12-31T01:16:51.410Z,995.33
2017-12-31T01:17:31.970Z,995.3
2017-12-31T01:18:12.552Z,995.37
2017-12-31T01:18:53.124Z,995.4
2017-12-31T01:19:33.681Z,995.36
2017-12-31T01:20:14.242Z,995.51
2017-12-31T01:20:54.813Z,995.55
2017-12-31T01:21:35.378Z,995.5
2017-12-31T01:22:15.947Z,995.51
2017-12-31T01:22:56.509Z,995.55
2017-12-31T01:23:37.107Z,995.55
2017-12-31T01:24:17.654Z,995.65
2017-12-31T01:24:58.230Z,995.63
2017-12-31T01:25:38.794Z,995.66
2017-12-31T01:26:19.381Z,995.58
2017-12-31T01:26:59.958Z,995.64
2017-12-31T01:27:40.518Z,995.73
2017-12-31T01:28:21.157Z,995.7
2017-12-31T01:29:01.715Z,995.56
2017-12-31T01:29:42.288Z,995.63
2017-12-31T01:30:22.870Z,995.63
2017-12-31T01:31:03.448Z,995.73
2017-12-31T01:31:44.013Z,995.7
2017-12-31T01:32:24.589Z,995.68
2017-12-31T01:33:05.160Z,995.67
2017-12-31T01:33:45.732Z,995.69
2017-12-31T01:34:26.310Z,995.71
2017-12-31T01:35:06.880Z,995.77
2017-12-31T01:35:47.452Z,995.7
2017-12-31T01:36:28.017Z,995.73
2017-12-31T01:37:08.605Z,995.83
2017-12-31T01:37:49.167Z,995.75
2017-12-31T01:38:29.735Z,995.81
2017-12-31T01:39:10.307Z,995.88
2017-12-31T01:39:50.874Z,995.8
2017-12-31T01:40:31.441Z,995.92
2017-12-31T01:41:11.998Z,995.95
2017-12-31T01:41:52.567Z,995.81
2017-12-31T01:42:33.139Z,995.85
2017-12-31T01:43:13.715Z,995.88
2017-12-31T01:43:54.278Z,995.88
2017-12-31T01:44:34.855Z,995.86
2017-12-31T01:45:15.408Z,995.85
2017-12-31T01:45:55.963Z,995.89
2017-12-31T01:46:36.527Z,995.9
2017-12-31T01:47:17.099Z,995.93
2017-12-31T01:48:00.567Z,995.98
2017-12-31T01:48:41.121Z,996.01
2017-12-31T01:49:21.703Z,996.06
2017-12-31T01:50:02.267Z,996.1
2017-12-31T01:50:42.831Z,996.13
2017-12-31T01:51:23.397Z,996.11
2017-12-31T01:52:03.965Z,996.15
2017-12-31T01:52:44.525Z,996.16
2017-12-31T01:53:25.079Z,996.1
2017-12-31T01:54:05.640Z,996.11
2017-12-31T01:54:46.211Z,996.18
2017-12-31T01:55:26.759Z,996.17
2017-12-31T01:56:07.319Z,996.15
2017-12-31T01:56:47.917Z,996.19
2017-12-31T01:57:28.506Z,996.2
2017-12-31T01:58:09.110Z,996.14
2017-12-31T01:58:49.739Z,996.17
2017-12-31T01:59:30.312Z,996.14
2017-12-31T02:00:10.871Z,996.15
2017-12-31T02:00:51.438Z,996.15
2017-12-31T02:01:31.994Z,996.23
2017-12-31T02:02:12.558Z,996.19
2017-12-31T02:02:53.135Z,996.24
2017-12-31T02:03:33.712Z,996.22
2017-12-31T02:04:14.275Z,996.29
2017-12-31T02:04:54.832Z,996.17
2017-12-31T02:05:35.396Z,996.21
2017-12-31T02:06:15.987Z,996.23
2017-12-31T02:06:56.568Z,996.26
2017-12-31T02:07:37.132Z,996.34
2017-12-31T02:08:17.698Z,996.35
2017-12-31T02:08:58.268Z,996.37
2017-12-31T02:09:38.836Z,996.35
2017-12-31T02:10:19.406Z,996.29
2017-12-31T02:10:59.967Z,996.25
2017-12-31T02:11:40.576Z,996.35
2017-12-31T02:12:21.094Z,996.4
2017-12-31T02:13:01.781Z,996.38
2017-12-31T02:13:42.346Z,996.41
2017-12-31T02:14:22.914Z,996.42
2017-12-31T02:15:03.478Z,996.38
2017-12-31T02:15:44.080Z,996.41
2017-12-31T02:16:24.650Z,996.41
2017-12-31T02:17:05.213Z,996.45
2017-12-31T02:17:45.795Z,996.5
2017-12-31T02:18:26.360Z,996.45
2017-12-31T02:19:06.964Z,996.55
2017-12-31T02:19:47.466Z,996.54
2017-12-31T02:20:28.022Z,996.56
2017-12-31T02:21:08.588Z,996.55
2017-12-31T02:21:49.155Z,996.63
2017-12-31T02:22:29.710Z,996.62
2017-12-31T02:23:10.270Z,996.71
2017-12-31T02:23:50.830Z,996.73
2017-12-31T02:24:31.399Z,996.76
2017-12-31T02:25:11.959Z,996.76
2017-12-31T02:25:52.554Z,996.75
2017-12-31T02:26:33.121Z,996.75
2017-12-31T02:27:13.688Z,996.83
2017-12-31T02:27:54.260Z,996.81
2017-12-31T02:28:34.828Z,996.86
2017-12-31T02:29:15.396Z,996.88
2017-12-31T02:29:55.963Z,996.87
2017-12-31T02:30:36.522Z,996.86
2017-12-31T02:31:17.087Z,996.84
2017-12-31T02:31:57.652Z,996.85
2017-12-31T02:32:38.242Z,996.85
2017-12-31T02:33:18.804Z,996.82
2017-12-31T02:33:59.369Z,996.75
2017-12-31T02:34:39.943Z,996.76
2017-12-31T02:35:20.509Z,996.7
2017-12-31T02:36:01.077Z,996.75
2017-12-31T02:36:41.642Z,996.77
2017-12-31T02:37:22.225Z,996.8
2017-12-31T02:38:02.798Z,996.81
2017-12-31T02:38:43.363Z,996.76
2017-12-31T02:39:23.937Z,996.87
2017-12-31T02:40:04.527Z,996.81
2017-12-31T02:40:45.090Z,996.83
2017-12-31T02:41:25.660Z,996.84
2017-12-31T02:42:06.221Z,996.85
2017-12-31T02:42:46.778Z,996.88
2017-12-31T02:43:27.373Z,996.95
2017-12-31T02:44:07.944Z,996.92
2017-12-31T02:44:48.508Z,996.92
2017-12-31T02:45:29.057Z,996.98
2017-12-31T02:46:09.644Z,996.93
2017-12-31T02:46:50.214Z,996.98
2017-12-31T02:47:30.777Z,997.01
2017-12-31T02:48:11.342Z,997.04
2017-12-31T02:48:51.904Z,997.01
2017-12-31T02:49:32.475Z,996.97
2017-12-31T02:50:13.047Z,996.96
2017-12-31T02:50:53.607Z,996.91
2017-12-31T02:51:34.190Z,996.96
2017-12-31T02:52:14.754Z,996.91
2017-12-31T02:52:55.321Z,996.98
2017-12-31T02:53:35.896Z,996.97
2017-12-31T02:54:16.473Z,996.97
2017-12-31T02:54:57.048Z,996.96
2017-12-31T02:55:37.619Z,996.97
2017-12-31T02:56:18.196Z,996.95
2017-12-31T02:56:58.769Z,996.97
2017-12-31T02:57:39.341Z,996.95
2017-12-31T02:58:19.910Z,996.97
2017-12-31T02:59:00.471Z,996.98
2017-12-31T02:59:41.038Z,996.99
2017-12-31T03:00:21.605Z,996.94
2017-12-31T03:01:02.182Z,996.96
2017-12-31T03:01:42.746Z,997.06
2017-12-31T03:02:23.326Z,997.02
2017-12-31T03:03:03.900Z,997.06
2017-12-31T03:03:44.462Z,997.09
2017-12-31T03:04:25.024Z,997.07
2017-12-31T03:05:05.580Z,997.09
2017-12-31T03:05:46.133Z,997.1
2017-12-31T03:06:26.685Z,997.05
2017-12-31T03:07:07.238Z,997.11
2017-12-31T03:07:47.803Z,997.08
2017-12-31T03:08:28.419Z,997.1
2017-12-31T03:09:08.955Z,997.1
2017-12-31T03:09:49.535Z,997.08
2017-12-31T03:10:30.094Z,997.17
2017-12-31T03:11:10.672Z,997.27
2017-12-31T03:11:51.247Z,997.31
2017-12-31T03:12:31.815Z,997.35
2017-12-31T03:13:12.381Z,997.29
2017-12-31T03:13:52.947Z,997.33
2017-12-31T03:14:33.510Z,997.32
2017-12-31T03:15:14.093Z,997.35
2017-12-31T03:15:54.682Z,997.33
2017-12-31T03:16:35.248Z,997.36
2017-12-31T03:17:15.808Z,997.34
2017-12-31T03:17:56.361Z,997.37
2017-12-31T03:18:36.920Z,997.32
2017-12-31T03:19:17.508Z,997.35
2017-12-31T03:19:58.072Z,997.35
2017-12-31T03:20:38.644Z,997.4
2017-12-31T03:21:19.204Z,997.39
2017-12-31T03:21:59.790Z,997.43
2017-12-31T03:22:40.406Z,997.39
2017-12-31T03:23:20.994Z,997.35
2017-12-31T03:24:01.550Z,997.29
2017-12-31T03:24:42.119Z,997.28
2017-12-31T03:25:22.677Z,997.37
2017-12-31T03:26:03.263Z,997.32
2017-12-31T03:26:43.813Z,997.32
2017-12-31T03:27:24.377Z,997.45
2017-12-31T03:28:04.960Z,997.42
2017-12-31T03:28:45.524Z,997.45
2017-12-31T03:29:26.080Z,997.43
2017-12-31T03:30:06.649Z,997.49
2017-12-31T03:30:47.212Z,997.47
2017-12-31T03:31:27.784Z,997.5
2017-12-31T03:32:08.338Z,997.5
2017-12-31T03:32:48.894Z,997.5
2017-12-31T03:33:29.460Z,997.49
2017-12-31T03:34:10.033Z,997.57
2017-12-31T03:34:50.595Z,997.49
2017-12-31T03:35:31.175Z,997.48
2017-12-31T03:36:11.735Z,997.5
2017-12-31T03:36:52.297Z,997.52
2017-12-31T03:37:32.865Z,997.53
2017-12-31T03:38:13.433Z,997.54
2017-12-31T03:38:54.002Z,997.59
2017-12-31T03:39:34.583Z,997.56
2017-12-31T03:40:15.151Z,997.64
2017-12-31T03:40:55.701Z,997.55
2017-12-31T03:41:36.258Z,997.67
2017-12-31T03:42:16.836Z,997.63
2017-12-31T03:42:57.389Z,997.67
2017-12-31T03:43:37.946Z,997.67
2017-12-31T03:44:18.518Z,997.73
2017-12-31T03:44:59.101Z,997.72
2017-12-31T03:45:39.661Z,997.8
2017-12-31T03:46:20.227Z,997.75
2017-12-31T03:47:00.796Z,997.82
2017-12-31T03:47:41.363Z,997.8
2017-12-31T03:48:21.926Z,997.79
2017-12-31T03:49:02.516Z,997.88
2017-12-31T03:49:43.077Z,997.86
2017-12-31T03:50:23.625Z,997.87
2017-12-31T03:51:04.190Z,997.93
2017-12-31T03:51:44.746Z,997.92
2017-12-31T03:52:25.335Z,997.95
2017-12-31T03:53:05.902Z,998.02
2017-12-31T03:53:46.462Z,998.01
2017-12-31T03:54:27.026Z,998.03
2017-12-31T03:55:07.585Z,998.05
2017-12-31T03:55:48.143Z,998.01
2017-12-31T03:56:28.713Z,998.07
2017-12-31T03:57:09.273Z,998.09
2017-12-31T03:57:49.854Z,998.08
2017-12-31T03:58:30.500Z,998.09
2017-12-31T03:59:11.057Z,998.1
2017-12-31T03:59:51.612Z,998.08
2017-12-31T04:00:32.179Z,998.06
2017-12-31T04:01:12.749Z,998.08
2017-12-31T04:01:53.325Z,998.04
2017-12-31T04:02:33.886Z,998.15
2017-12-31T04:03:14.456Z,998.07
2017-12-31T04:03:55.017Z,998.09
2017-12-31T04:04:35.595Z,998.05
2017-12-31T04:05:16.156Z,998.08
2017-12-31T04:05:56.729Z,998.07
2017-12-31T04:06:37.285Z,998.05
2017-12-31T04:07:17.855Z,998.05
2017-12-31T04:07:58.412Z,998.1
2017-12-31T04:08:38.975Z,998.07
2017-12-31T04:09:19.544Z,998.13
2017-12-31T04:10:00.113Z,998.07
2017-12-31T04:10:40.682Z,998.13
2017-12-31T04:11:21.249Z,998.15
2017-12-31T04:12:01.817Z,998.11
2017-12-31T04:12:42.392Z,998.09
2017-12-31T04:13:22.957Z,998.08
2017-12-31T04:14:03.520Z,998.06
2017-12-31T04:14:44.100Z,998.04
2017-12-31T04:15:24.669Z,998.05
2017-12-31T04:16:05.252Z,998.06
2017-12-31T04:16:45.837Z,998.09
2017-12-31T04:17:26.400Z,998.08
2017-12-31T04:18:06.974Z,998.09
2017-12-31T04:18:47.530Z,998.07
2017-12-31T04:19:28.090Z,998.09
2017-12-31T04:20:08.655Z,998.12
2017-12-31T04:20:49.208Z,998.15
2017-12-31T04:21:29.771Z,998.17
2017-12-31T04:22:10.329Z,998.14
2017-12-31T04:22:50.915Z,998.14
2017-12-31T04:23:31.497Z,998.13
2017-12-31T04:24:12.061Z,998.17
2017-12-31T04:24:52.623Z,998.17
2017-12-31T04:25:33.191Z,998.19
2017-12-31T04:26:13.791Z,998.2
2017-12-31T04:26:54.357Z,998.19
2017-12-31T04:27:34.926Z,998.19
2017-12-31T04:28:15.491Z,998.2
2017-12-31T04:28:56.059Z,998.25
2017-12-31T04:29:36.618Z,998.25
2017-12-31T04:30:17.178Z,998.26
2017-12-31T04:30:57.741Z,998.26
2017-12-31T04:31:38.309Z,998.26
2017-12-31T04:32:18.886Z,998.27
2017-12-31T04:32:59.435Z,998.26
2017-12-31T04:33:39.996Z,998.3
2017-12-31T04:34:20.559Z,998.3
2017-12-31T04:35:01.115Z,998.34
2017-12-31T04:35:41.674Z,998.37
2017-12-31T04:36:22.244Z,998.38
2017-12-31T04:37:02.817Z,998.36
2017-12-31T04:37:43.392Z,998.42
2017-12-31T04:38:23.961Z,998.42
2017-12-31T04:39:04.530Z,998.51
2017-12-31T04:39:45.094Z,998.53
2017-12-31T04:40:25.660Z,998.51
2017-12-31T04:41:06.212Z,998.51
2017-12-31T04:41:46.815Z,998.52
2017-12-31T04:42:27.384Z,998.57
2017-12-31T04:43:07.950Z,998.55
2017-12-31T04:43:48.531Z,998.5
2017-12-31T04:44:29.093Z,998.52
2017-12-31T04:45:09.647Z,998.51
2017-12-31T04:45:50.207Z,998.54
2017-12-31T04:46:30.783Z,998.52
2017-12-31T04:47:11.355Z,998.56
2017-12-31T04:47:51.925Z,998.53
2017-12-31T04:48:32.488Z,998.55
2017-12-31T04:49:13.051Z,998.58
2017-12-31T04:49:53.610Z,998.6
2017-12-31T04:50:34.189Z,998.55
2017-12-31T04:51:14.765Z,998.56
2017-12-31T04:51:55.321Z,998.57
2017-12-31T04:52:35.882Z,998.49
2017-12-31T04:53:16.453Z,998.49
2017-12-31T04:53:57.034Z,998.5
2017-12-31T04:54:37.591Z,998.41
2017-12-31T04:55:18.157Z,998.43
2017-12-31T04:55:58.725Z,998.42
2017-12-31T04:56:39.303Z,998.4
2017-12-31T04:57:19.858Z,998.42
2017-12-31T04:58:00.424Z,998.46
2017-12-31T04:58:40.990Z,998.46
2017-12-31T04:59:21.559Z,998.48
2017-12-31T05:00:02.140Z,998.45
2017-12-31T05:00:42.712Z,998.44
2017-12-31T05:01:23.271Z,998.47
2017-12-31T05:02:03.846Z,998.44
2017-12-31T05:02:44.417Z,998.5
2017-12-31T05:03:24.995Z,998.47
2017-12-31T05:04:05.556Z,998.47
2017-12-31T05:04:46.141Z,998.51
2017-12-31T05:05:26.700Z,998.54
2017-12-31T05:06:07.270Z,998.56
2017-12-31T05:06:47.836Z,998.53
2017-12-31T05:07:28.415Z,998.56
2017-12-31T05:08:08.980Z,998.61
2017-12-31T05:08:49.545Z,998.63
2017-12-31T05:09:30.118Z,998.65
2017-12-31T05:10:10.684Z,998.68
2017-12-31T05:10:51.244Z,998.67
2017-12-31T05:11:31.807Z,998.7
2017-12-31T05:12:12.374Z,998.76
2017-12-31T05:12:52.938Z,998.78
2017-12-31T05:13:33.496Z,998.79
2017-12-31T05:14:14.053Z,998.78
2017-12-31T05:14:54.613Z,998.84
2017-12-31T05:15:35.185Z,998.79
2017-12-31T05:16:15.757Z,998.81
2017-12-31T05:16:56.314Z,998.73
2017-12-31T05:17:36.887Z,998.76
2017-12-31T05:18:17.450Z,998.79
2017-12-31T05:18:58.012Z,998.74
2017-12-31T05:19:38.562Z,998.78
2017-12-31T05:20:19.121Z,998.78
2017-12-31T05:20:59.697Z,998.74
2017-12-31T05:21:40.260Z,998.8
2017-12-31T05:22:20.824Z,998.8
2017-12-31T05:23:01.384Z,998.81
2017-12-31T05:23:41.956Z,998.77
2017-12-31T05:24:22.531Z,998.67
2017-12-31T05:25:03.105Z,998.68
2017-12-31T05:25:43.667Z,998.72
2017-12-31T05:26:24.245Z,998.71
2017-12-31T05:27:04.818Z,998.75
2017-12-31T05:27:45.392Z,998.71
2017-12-31T05:28:25.955Z,998.73
2017-12-31T05:29:06.513Z,998.71
2017-12-31T05:29:47.082Z,998.69
2017-12-31T05:30:27.639Z,998.69
2017-12-31T05:31:08.207Z,998.7
2017-12-31T05:31:48.775Z,998.69
2017-12-31T05:32:29.341Z,998.68
2017-12-31T05:33:09.893Z,998.68
2017-12-31T05:33:50.457Z,998.67
2017-12-31T05:34:31.032Z,998.67
2017-12-31T05:35:11.601Z,998.66
2017-12-31T05:35:52.164Z,998.64
2017-12-31T05:36:32.732Z,998.67
2017-12-31T05:37:13.293Z,998.67
2017-12-31T05:37:53.862Z,998.66
2017-12-31T05:38:34.440Z,998.65
2017-12-31T05:39:15.010Z,998.71
2017-12-31T05:39:55.584Z,998.7
2017-12-31T05:40:36.163Z,998.75
2017-12-31T05:41:16.736Z,998.75
2017-12-31T05:41:57.309Z,998.75
2017-12-31T05:42:37.902Z,998.79
2017-12-31T05:43:18.481Z,998.79
2017-12-31T05:43:59.049Z,998.76
2017-12-31T05:44:39.622Z,998.78
2017-12-31T05:45:20.198Z,998.81
2017-12-31T05:46:00.798Z,998.79
2017-12-31T05:46:41.367Z,998.75
2017-12-31T05:47:21.940Z,998.73
2017-12-31T05:48:02.518Z,998.73
2017-12-31T05:48:43.085Z,998.78
2017-12-31T05:49:23.654Z,998.81
2017-12-31T05:50:04.209Z,998.85
2017-12-31T05:50:44.758Z,998.87
2017-12-31T05:51:25.323Z,998.87
2017-12-31T05:52:05.897Z,998.93
2017-12-31T05:52:46.449Z,998.92
2017-12-31T05:53:27.019Z,998.93
2017-12-31T05:54:07.581Z,998.94
2017-12-31T05:54:48.147Z,998.95
2017-12-31T05:55:28.711Z,998.94
2017-12-31T05:56:09.292Z,998.91
2017-12-31T05:56:49.879Z,998.89
2017-12-31T05:57:30.454Z,998.87
2017-12-31T05:58:11.020Z,998.9
2017-12-31T05:58:51.582Z,998.85
2017-12-31T05:59:32.154Z,998.83
2017-12-31T06:00:12.720Z,998.84
2017-12-31T06:00:53.284Z,998.8
2017-12-31T06:01:33.856Z,998.9
2017-12-31T06:02:14.421Z,998.91
2017-12-31T06:02:54.981Z,998.94
2017-12-31T06:03:35.564Z,998.93
2017-12-31T06:04:16.129Z,998.97
2017-12-31T06:04:56.702Z,998.96
2017-12-31T06:05:37.281Z,998.97
2017-12-31T06:06:17.841Z,998.96
2017-12-31T06:06:58.415Z,999.04
2017-12-31T06:07:38.980Z,999.01
2017-12-31T06:08:19.546Z,999.09
2017-12-31T06:09:00.103Z,999.11
2017-12-31T06:09:40.668Z,999.1
2017-12-31T06:10:21.234Z,999.07
2017-12-31T06:11:01.870Z,999.08
2017-12-31T06:11:42.451Z,999.06
2017-12-31T06:12:23.014Z,999.03
2017-12-31T06:13:03.594Z,998.99
2017-12-31T06:13:44.146Z,998.93
2017-12-31T06:14:24.710Z,998.93
2017-12-31T06:15:05.278Z,998.98
2017-12-31T06:15:45.844Z,999
2017-12-31T06:16:26.406Z,999
2017-12-31T06:17:06.974Z,998.96
2017-12-31T06:17:47.539Z,998.95
2017-12-31T06:18:28.114Z,998.97
2017-12-31T06:19:08.684Z,998.98
2017-12-31T06:19:49.255Z,999.04
2017-12-31T06:20:29.827Z,999.03
2017-12-31T06:21:10.402Z,999.01
2017-12-31T06:21:50.968Z,999.04
2017-12-31T06:22:31.556Z,998.98
2017-12-31T06:23:12.123Z,999.09
2017-12-31T06:23:52.688Z,999.04
2017-12-31T06:24:33.252Z,999.05
2017-12-31T06:25:13.816Z,999.03
2017-12-31T06:25:54.371Z,999
2017-12-31T06:26:34.973Z,999.02
2017-12-31T06:27:15.545Z,999.01
2017-12-31T06:27:56.111Z,998.98
2017-12-31T06:28:36.677Z,998.99
2017-12-31T06:31:05.053Z,998.95
2017-12-31T06:31:45.608Z,998.98
2017-12-31T06:32:26.195Z,998.98
2017-12-31T06:33:06.761Z,998.97
2017-12-31T06:33:47.357Z,999.03
2017-12-31T06:34:27.928Z,999.05
2017-12-31T06:35:08.512Z,999.07
2017-12-31T06:35:49.074Z,999.06
2017-12-31T06:36:29.639Z,999.05
2017-12-31T06:37:10.194Z,999.07
2017-12-31T06:37:50.766Z,999.06
2017-12-31T06:38:31.329Z,999.05
2017-12-31T06:39:11.880Z,999.09
2017-12-31T06:39:52.442Z,999.06
2017-12-31T06:40:33.027Z,999.09
2017-12-31T06:41:13.587Z,999.1
2017-12-31T06:41:54.154Z,999.09
2017-12-31T06:42:34.726Z,999.03
2017-12-31T06:43:15.287Z,999.06
2017-12-31T06:43:55.842Z,999.02
2017-12-31T06:44:36.403Z,999.04
2017-12-31T06:45:16.962Z,999.09
2017-12-31T06:45:57.527Z,999.04
2017-12-31T06:46:38.081Z,999.07
2017-12-31T06:47:18.646Z,999.07
2017-12-31T06:47:59.254Z,999.1
2017-12-31T06:48:39.823Z,999.1
2017-12-31T06:49:20.400Z,999.12
2017-12-31T06:50:00.953Z,999.1
2017-12-31T06:50:41.511Z,999.11
2017-12-31T06:51:22.066Z,999.09
2017-12-31T06:52:02.631Z,999.08
2017-12-31T06:52:43.208Z,999.07
2017-12-31T06:53:23.768Z,999.06
2017-12-31T06:54:04.327Z,999.08
2017-12-31T06:54:44.926Z,999.06
2017-12-31T06:55:25.483Z,999.07
2017-12-31T06:56:06.037Z,999.07
2017-12-31T06:56:46.596Z,999.02
2017-12-31T06:57:27.160Z,999.02
2017-12-31T06:58:07.732Z,999
2017-12-31T06:58:48.312Z,999.02
2017-12-31T06:59:28.867Z,999.02
2017-12-31T07:00:09.431Z,999.03
2017-12-31T07:00:50.013Z,999
2017-12-31T07:01:30.588Z,998.97
2017-12-31T07:02:11.147Z,998.96
2017-12-31T07:02:51.714Z,998.97
2017-12-31T07:03:32.314Z,998.97
2017-12-31T07:04:12.873Z,998.99
2017-12-31T07:04:53.441Z,998.99
2017-12-31T07:05:34.010Z,999.02
2017-12-31T07:06:14.582Z,999.03
2017-12-31T07:06:55.137Z,999.03
2017-12-31T07:07:35.696Z,999.05
2017-12-31T07:08:16.291Z,999.05
2017-12-31T07:08:56.887Z,999.03
2017-12-31T07:09:37.457Z,999.03
2017-12-31T07:10:18.026Z,998.99
2017-12-31T07:10:58.595Z,999.04
2017-12-31T07:11:39.162Z,999
2017-12-31T07:12:19.728Z,998.99
2017-12-31T07:13:00.284Z,998.99
2017-12-31T07:13:40.856Z,999
2017-12-31T07:14:21.428Z,999.03
2017-12-31T07:15:01.980Z,999.05
2017-12-31T07:15:42.547Z,999.08
2017-12-31T07:16:23.107Z,999.06
2017-12-31T07:17:03.685Z,999.04
2017-12-31T07:17:44.258Z,999.03
2017-12-31T07:18:24.819Z,999.02
2017-12-31T07:19:05.401Z,999
2017-12-31T07:19:45.982Z,999.05
2017-12-31T07:20:26.544Z,999.01
2017-12-31T07:21:07.121Z,999.02
2017-12-31T07:21:47.712Z,999.09
2017-12-31T07:22:28.268Z,999.1
2017-12-31T07:23:08.828Z,999.08
2017-12-31T07:23:49.406Z,999.05
2017-12-31T07:24:29.978Z,999.13
2017-12-31T07:25:10.544Z,999.11
2017-12-31T07:25:51.117Z,999.14
2017-12-31T07:26:31.675Z,999.11
2017-12-31T07:27:12.248Z,999.1
2017-12-31T07:27:52.812Z,999.14
2017-12-31T07:28:33.389Z,999.16
2017-12-31T07:29:13.948Z,999.12
2017-12-31T07:29:54.526Z,999.19
2017-12-31T07:30:35.077Z,999.16
2017-12-31T07:32:52.984Z,999.14
2017-12-31T07:33:33.551Z,999.16
2017-12-31T07:34:14.109Z,999.17
2017-12-31T07:34:54.692Z,999.16
2017-12-31T07:35:35.245Z,999.18
2017-12-31T07:36:15.816Z,999.22
2017-12-31T07:36:56.363Z,999.2
2017-12-31T07:37:36.921Z,999.16
2017-12-31T07:38:17.483Z,999.16
2017-12-31T07:38:58.046Z,999.19
2017-12-31T07:39:38.599Z,999.21
2017-12-31T07:40:19.173Z,999.22
2017-12-31T07:40:59.741Z,999.22
2017-12-31T07:41:40.294Z,999.21
2017-12-31T07:42:20.869Z,999.19
2017-12-31T07:43:01.442Z,999.16
2017-12-31T07:43:42.007Z,999.18
2017-12-31T07:44:22.568Z,999.16
2017-12-31T07:45:03.119Z,999.12
2017-12-31T07:45:43.704Z,999.12
2017-12-31T07:46:24.272Z,999.11
2017-12-31T07:47:04.843Z,999.08
2017-12-31T07:47:46.292Z,999.1
2017-12-31T07:48:27.340Z,999.1
2017-12-31T07:49:07.903Z,999.09
2017-12-31T07:49:48.614Z,999.13
2017-12-31T07:50:29.261Z,999.14
2017-12-31T07:51:10.282Z,999.15
2017-12-31T07:51:50.863Z,999.13
2017-12-31T07:52:32.065Z,999.14
2017-12-31T07:53:13.173Z,999.19
2017-12-31T07:53:54.024Z,999.21
2017-12-31T07:54:34.647Z,999.22
2017-12-31T07:55:15.164Z,999.18
2017-12-31T07:55:55.739Z,999.22
2017-12-31T07:56:36.295Z,999.17
2017-12-31T07:57:16.857Z,999.23
2017-12-31T07:57:57.408Z,999.2
2017-12-31T07:58:37.974Z,999.2
2017-12-31T07:59:18.533Z,999.19
2017-12-31T07:59:59.342Z,999.26
2017-12-31T08:00:40.080Z,999.22
2017-12-31T08:01:20.851Z,999.22
2017-12-31T08:02:01.591Z,999.23
2017-12-31T08:02:42.156Z,999.24
2017-12-31T08:03:22.709Z,999.25
2017-12-31T08:04:03.857Z,999.26
2017-12-31T08:04:44.973Z,999.3
2017-12-31T08:05:26.946Z,999.27
2017-12-31T08:06:07.808Z,999.25
2017-12-31T08:06:50.189Z,999.29
2017-12-31T08:07:31.173Z,999.28
2017-12-31T08:08:11.765Z,999.28
2017-12-31T08:08:52.540Z,999.29
2017-12-31T08:09:33.644Z,999.29
2017-12-31T08:10:14.221Z,999.33
2017-12-31T08:10:54.950Z,999.3
2017-12-31T08:11:35.737Z,999.3
2017-12-31T08:12:16.326Z,999.33
2017-12-31T08:12:57.080Z,999.28
2017-12-31T08:13:39.054Z,999.27
2017-12-31T08:14:20.246Z,999.28
2017-12-31T08:15:01.862Z,999.24
2017-12-31T08:15:42.847Z,999.26
2017-12-31T08:16:23.997Z,999.23
2017-12-31T08:17:05.700Z,999.22
2017-12-31T08:17:46.717Z,999.24
2017-12-31T08:18:27.948Z,999.22
2017-12-31T08:19:09.034Z,999.25
2017-12-31T08:19:50.058Z,999.22
2017-12-31T08:20:30.790Z,999.22
2017-12-31T08:21:11.527Z,999.23
2017-12-31T08:21:53.774Z,999.21
2017-12-31T08:22:35.508Z,999.17
2017-12-31T08:23:16.382Z,999.25
2017-12-31T08:23:58.637Z,999.21
2017-12-31T08:24:40.102Z,999.22
2017-12-31T08:25:21.412Z,999.2
2017-12-31T08:26:02.146Z,999.19
2017-12-31T08:26:43.628Z,999.16
2017-12-31T08:27:24.691Z,999.2
2017-12-31T08:28:05.857Z,999.15
2017-12-31T08:28:46.765Z,999.14
2017-12-31T08:29:27.813Z,999.13
2017-12-31T08:30:08.801Z,999.13
2017-12-31T08:30:50.356Z,999.12
2017-12-31T08:31:31.180Z,999.1
2017-12-31T08:32:12.037Z,999.08